createdAt,value
2023-01-27T00:00:52.810Z,73.70
2023-01-27T00:03:20.856Z,73.70
2023-01-27T00:05:48.247Z,73.50
2023-01-27T00:08:15.959Z,73.50
2023-01-27T00:10:43.161Z,73.50
2023-01-27T00:13:31.964Z,73.30
2023-01-27T00:15:58.952Z,73.10
2023-01-27T00:18:25.863Z,73.00
2023-01-27T00:21:11.832Z,73.00
2023-01-27T00:23:57.187Z,73.10
2023-01-27T00:26:24.031Z,72.90
2023-01-27T00:28:51.033Z,72.70
2023-01-27T00:31:38.083Z,72.80
2023-01-27T00:34:11.747Z,72.80
2023-01-27T00:36:41.974Z,72.90
2023-01-27T00:39:10.797Z,73.00
2023-01-27T00:41:38.000Z,73.10
2023-01-27T00:44:05.772Z,73.00
2023-01-27T00:46:33.948Z,72.80
2023-01-27T00:49:02.325Z,72.70
2023-01-27T00:51:30.423Z,72.80
2023-01-27T00:53:59.195Z,72.80
2023-01-27T00:56:27.069Z,72.70
2023-01-27T00:58:55.585Z,72.80
2023-01-27T01:01:22.524Z,72.70
2023-01-27T01:03:49.438Z,72.80
2023-01-27T01:06:17.680Z,72.70
2023-01-27T01:08:45.064Z,72.70
2023-01-27T01:11:15.627Z,72.70
2023-01-27T01:13:43.767Z,72.90
2023-01-27T01:16:22.653Z,72.90
2023-01-27T01:18:49.904Z,72.90
2023-01-27T01:21:17.254Z,72.70
2023-01-27T01:23:45.712Z,72.80
2023-01-27T01:26:14.083Z,72.80
2023-01-27T01:28:40.907Z,72.60
2023-01-27T01:31:19.302Z,72.50
2023-01-27T01:33:47.229Z,72.60
2023-01-27T01:36:19.444Z,72.80
2023-01-27T01:38:46.681Z,72.80
2023-01-27T01:41:20.130Z,72.80
2023-01-27T01:43:48.011Z,72.80
2023-01-27T01:46:15.156Z,72.70
2023-01-27T01:48:54.491Z,72.70
2023-01-27T01:51:31.548Z,72.90
2023-01-27T01:54:11.463Z,73.00
2023-01-27T01:57:04.994Z,73.00
2023-01-27T01:59:50.516Z,73.20
2023-01-27T02:02:22.004Z,73.30
2023-01-27T02:05:12.668Z,73.30
2023-01-27T02:07:42.787Z,73.40
2023-01-27T02:10:11.845Z,73.40
2023-01-27T02:12:39.444Z,73.30
2023-01-27T02:15:08.241Z,73.30
2023-01-27T02:17:35.700Z,73.40
2023-01-27T02:20:28.333Z,73.40
2023-01-27T02:23:32.994Z,73.40
2023-01-27T02:26:09.711Z,73.40
2023-01-27T02:28:36.884Z,73.40
2023-01-27T02:31:04.103Z,73.40
2023-01-27T02:33:31.459Z,73.50
2023-01-27T02:36:09.207Z,73.50
2023-01-27T02:38:50.303Z,73.50
2023-01-27T02:41:40.605Z,73.50
2023-01-27T02:44:09.291Z,73.50
2023-01-27T02:46:36.544Z,73.40
2023-01-27T02:49:03.862Z,73.40
2023-01-27T02:51:31.076Z,73.40
2023-01-27T02:53:59.431Z,73.40
2023-01-27T02:56:26.495Z,73.30
2023-01-27T02:58:56.617Z,73.40
2023-01-27T03:01:32.465Z,73.40
2023-01-27T03:04:00.170Z,73.40
2023-01-27T03:06:27.064Z,73.30
2023-01-27T03:08:53.997Z,73.30
2023-01-27T03:11:39.895Z,73.20
2023-01-27T03:14:08.812Z,73.30
2023-01-27T03:16:54.490Z,73.30
2023-01-27T03:19:21.570Z,73.30
2023-01-27T03:21:51.133Z,73.20
2023-01-27T03:24:18.900Z,73.20
2023-01-27T03:26:45.920Z,73.40
2023-01-27T03:29:33.299Z,73.40
2023-01-27T03:32:01.415Z,73.40
2023-01-27T03:34:32.015Z,73.40
2023-01-27T03:37:25.299Z,73.50
2023-01-27T03:40:10.707Z,73.70
2023-01-27T03:42:56.476Z,73.60
2023-01-27T03:45:41.935Z,73.80
2023-01-27T03:48:08.751Z,73.80
2023-01-27T03:50:38.330Z,73.90
2023-01-27T03:53:05.964Z,74.00
2023-01-27T03:55:35.343Z,74.00
2023-01-27T03:58:18.460Z,73.90
2023-01-27T04:00:56.677Z,74.00
2023-01-27T04:03:46.358Z,74.00
2023-01-27T04:06:37.432Z,73.70
2023-01-27T04:09:06.063Z,73.60
2023-01-27T04:11:52.314Z,73.70
2023-01-27T04:14:19.311Z,73.70
2023-01-27T04:16:46.282Z,73.80
2023-01-27T04:19:13.427Z,73.70
2023-01-27T04:21:40.652Z,73.70
2023-01-27T04:24:08.854Z,73.60
2023-01-27T04:26:35.906Z,73.30
2023-01-27T04:29:03.502Z,73.40
2023-01-27T04:31:32.567Z,73.40
2023-01-27T04:33:59.453Z,73.40
2023-01-27T04:36:26.235Z,73.40
2023-01-27T04:38:53.816Z,73.20
2023-01-27T04:41:20.550Z,73.10
2023-01-27T04:43:48.145Z,73.10
2023-01-27T04:46:15.041Z,72.80
2023-01-27T04:48:41.816Z,72.80
2023-01-27T04:51:08.605Z,72.60
2023-01-27T04:53:35.391Z,72.50
2023-01-27T04:56:05.141Z,72.40
2023-01-27T04:58:32.234Z,72.30
2023-01-27T05:00:59.225Z,71.90
2023-01-27T05:03:26.020Z,71.90
2023-01-27T05:05:52.785Z,72.10
2023-01-27T05:08:19.647Z,71.90
2023-01-27T05:10:46.839Z,71.70
2023-01-27T05:13:13.792Z,71.70
2023-01-27T05:15:40.744Z,71.70
2023-01-27T05:18:07.519Z,71.50
2023-01-27T05:20:34.281Z,71.40
2023-01-27T05:23:19.849Z,71.40
2023-01-27T05:25:46.774Z,71.30
2023-01-27T05:28:13.602Z,71.30
2023-01-27T05:30:40.504Z,71.40
2023-01-27T05:33:08.371Z,71.30
2023-01-27T05:35:35.447Z,71.20
2023-01-27T05:38:02.337Z,71.40
2023-01-27T05:40:29.635Z,71.20
2023-01-27T05:42:56.402Z,71.00
2023-01-27T05:45:23.272Z,71.00
2023-01-27T05:47:51.549Z,71.10
2023-01-27T05:50:19.072Z,71.10
2023-01-27T05:52:46.199Z,70.80
2023-01-27T05:55:13.367Z,70.70
2023-01-27T05:57:40.315Z,70.30
2023-01-27T06:00:07.818Z,70.50
2023-01-27T06:02:34.981Z,70.50
2023-01-27T06:05:01.796Z,70.50
2023-01-27T06:07:28.604Z,70.60
2023-01-27T06:09:55.398Z,70.60
2023-01-27T06:12:22.137Z,70.40
2023-01-27T06:14:48.989Z,70.20
2023-01-27T06:17:15.706Z,70.20
2023-01-27T06:19:42.490Z,70.20
2023-01-27T06:22:09.401Z,70.20
2023-01-27T06:24:36.147Z,70.10
2023-01-27T06:27:03.077Z,70.10
2023-01-27T06:29:29.832Z,70.10
2023-01-27T06:31:57.821Z,70.10
2023-01-27T06:34:24.666Z,70.00
2023-01-27T06:36:53.851Z,69.80
2023-01-27T06:39:20.699Z,69.70
2023-01-27T06:41:49.816Z,69.90
2023-01-27T06:44:16.671Z,69.80
2023-01-27T06:46:43.654Z,69.70
2023-01-27T06:49:10.490Z,69.60
2023-01-27T06:51:37.214Z,69.60
2023-01-27T06:54:04.791Z,69.60
2023-01-27T06:56:31.526Z,69.50
2023-01-27T06:58:58.266Z,69.30
2023-01-27T07:01:24.978Z,69.20
2023-01-27T07:03:51.764Z,69.20
2023-01-27T07:06:19.057Z,68.90
2023-01-27T07:08:47.297Z,68.70
2023-01-27T07:11:14.663Z,68.40
2023-01-27T07:13:41.465Z,68.60
2023-01-27T07:16:08.366Z,68.60
2023-01-27T07:18:35.223Z,68.70
2023-01-27T07:21:05.085Z,68.80
2023-01-27T07:23:32.258Z,68.70
2023-01-27T07:26:04.309Z,68.50
2023-01-27T07:28:32.576Z,68.60
2023-01-27T07:31:02.935Z,68.50
2023-01-27T07:33:29.863Z,68.20
2023-01-27T07:35:56.723Z,67.90
2023-01-27T07:38:23.618Z,68.00
2023-01-27T07:40:50.530Z,67.80
2023-01-27T07:43:17.267Z,67.90
2023-01-27T07:45:48.950Z,68.10
2023-01-27T07:48:16.538Z,68.00
2023-01-27T07:50:43.420Z,67.40
2023-01-27T07:53:11.735Z,67.50
2023-01-27T07:55:38.593Z,67.30
2023-01-27T07:58:06.056Z,67.30
2023-01-27T08:00:33.135Z,67.30
2023-01-27T08:03:00.983Z,67.50
2023-01-27T08:05:29.082Z,67.70
2023-01-27T08:07:58.621Z,67.70
2023-01-27T08:10:25.776Z,67.70
2023-01-27T08:12:52.771Z,67.70
2023-01-27T08:15:19.708Z,67.70
2023-01-27T08:17:57.109Z,67.60
2023-01-27T08:20:25.357Z,67.70
2023-01-27T08:22:52.219Z,67.70
2023-01-27T08:25:19.423Z,67.70
2023-01-27T08:27:50.569Z,67.80
2023-01-27T08:30:19.012Z,67.90
2023-01-27T08:32:45.865Z,68.30
2023-01-27T08:35:12.653Z,68.10
2023-01-27T08:37:39.485Z,67.90
2023-01-27T08:40:06.730Z,67.80
2023-01-27T08:42:33.466Z,67.70
2023-01-27T08:45:00.573Z,67.50
2023-01-27T08:47:27.357Z,68.00
2023-01-27T08:49:54.363Z,68.10
2023-01-27T08:52:22.996Z,67.90
2023-01-27T08:54:49.783Z,68.20
2023-01-27T08:57:16.542Z,68.20
2023-01-27T08:59:43.373Z,67.60
2023-01-27T09:02:13.419Z,66.90
2023-01-27T09:04:43.824Z,67.90
2023-01-27T09:07:11.066Z,68.50
2023-01-27T09:09:37.978Z,68.80
2023-01-27T09:12:04.861Z,68.20
2023-01-27T09:14:31.689Z,66.40
2023-01-27T09:16:58.458Z,66.50
2023-01-27T09:19:25.598Z,67.40
2023-01-27T09:21:52.491Z,65.50
2023-01-27T09:24:20.578Z,63.90
2023-01-27T09:26:47.508Z,63.60
2023-01-27T09:29:14.338Z,62.50
2023-01-27T09:31:41.228Z,62.50
2023-01-27T09:34:07.997Z,62.20
2023-01-27T09:36:42.900Z,62.90
2023-01-27T09:39:10.207Z,63.40
2023-01-27T09:42:01.737Z,63.80
2023-01-27T09:45:06.577Z,63.70
2023-01-27T09:47:53.607Z,62.50
2023-01-27T09:50:35.365Z,62.70
2023-01-27T09:53:18.355Z,60.30
2023-01-27T09:56:01.635Z,57.70
2023-01-27T09:58:40.497Z,55.20
2023-01-27T10:01:30.189Z,54.60
2023-01-27T10:04:13.297Z,51.60
2023-01-27T10:07:18.427Z,52.00
2023-01-27T10:09:53.974Z,50.00
2023-01-27T10:12:23.543Z,49.60
2023-01-27T10:15:37.234Z,49.10
2023-01-27T10:18:13.700Z,48.60
2023-01-27T10:21:12.663Z,47.00
2023-01-27T10:24:02.616Z,46.50
2023-01-27T10:26:49.434Z,46.40
2023-01-27T10:29:37.541Z,47.60
2023-01-27T10:32:13.095Z,48.40
2023-01-27T10:35:12.148Z,49.50
2023-01-27T10:38:08.090Z,50.90
2023-01-27T10:40:45.655Z,52.60
2023-01-27T10:43:18.166Z,53.50
2023-01-27T10:46:03.911Z,53.80
2023-01-27T10:48:45.981Z,53.90
2023-01-27T10:51:20.163Z,54.10
2023-01-27T10:53:49.893Z,54.40
2023-01-27T10:56:27.843Z,54.90
2023-01-27T10:59:09.604Z,55.50
2023-01-27T11:02:00.743Z,56.20
2023-01-27T11:04:43.786Z,56.90
2023-01-27T11:07:32.435Z,57.60
2023-01-27T11:10:05.946Z,58.20
2023-01-27T11:12:36.731Z,57.90
2023-01-27T11:15:23.662Z,58.10
2023-01-27T11:18:18.073Z,58.60
2023-01-27T11:20:51.102Z,59.00
2023-01-27T11:23:27.552Z,59.30
2023-01-27T11:26:44.594Z,60.00
2023-01-27T11:29:38.982Z,60.00
2023-01-27T11:32:08.521Z,60.10
2023-01-27T11:34:41.207Z,60.10
2023-01-27T11:37:25.495Z,60.20
2023-01-27T11:39:52.373Z,60.40
2023-01-27T11:42:19.427Z,60.60
2023-01-27T11:44:46.415Z,60.80
2023-01-27T11:47:30.498Z,61.00
2023-01-27T11:49:58.511Z,61.10
2023-01-27T11:52:27.142Z,61.20
2023-01-27T11:55:18.085Z,61.20
2023-01-27T11:57:55.258Z,61.30
2023-01-27T12:00:24.537Z,61.20
2023-01-27T12:03:06.562Z,61.20
2023-01-27T12:05:42.607Z,61.50
2023-01-27T12:08:09.654Z,61.60
2023-01-27T12:10:42.198Z,61.80
2023-01-27T12:13:20.533Z,62.30
2023-01-27T12:15:53.287Z,62.60
2023-01-27T12:18:20.520Z,62.60
2023-01-27T12:20:57.173Z,62.80
2023-01-27T12:23:37.200Z,62.80
2023-01-27T12:26:07.306Z,62.80
2023-01-27T12:28:38.727Z,62.60
2023-01-27T12:31:13.219Z,62.60
2023-01-27T12:33:51.086Z,62.20
2023-01-27T12:36:24.523Z,62.20
2023-01-27T12:38:53.529Z,62.40
2023-01-27T12:41:27.112Z,62.40
2023-01-27T12:44:22.378Z,62.70
2023-01-27T12:47:02.454Z,62.80
2023-01-27T12:49:42.275Z,62.90
2023-01-27T12:52:18.695Z,63.00
2023-01-27T12:54:45.919Z,63.10
2023-01-27T12:57:17.969Z,63.40
2023-01-27T12:59:54.879Z,63.40
2023-01-27T13:02:32.939Z,63.10
2023-01-27T13:05:04.775Z,63.10
2023-01-27T13:07:52.698Z,63.10
2023-01-27T13:10:24.461Z,62.70
2023-01-27T13:12:58.793Z,62.10
2023-01-27T13:15:28.829Z,62.20
2023-01-27T13:17:57.436Z,62.00
2023-01-27T13:20:30.199Z,61.80
2023-01-27T13:23:07.985Z,61.20
2023-01-27T13:25:45.129Z,61.40
2023-01-27T13:28:18.745Z,61.50
2023-01-27T13:30:52.564Z,61.20
2023-01-27T13:34:17.205Z,61.00
2023-01-27T13:36:45.760Z,61.20
2023-01-27T13:39:23.690Z,61.40
2023-01-27T13:42:06.010Z,61.60
2023-01-27T13:44:40.503Z,61.70
2023-01-27T13:47:36.081Z,61.70
2023-01-27T13:50:16.435Z,61.80
2023-01-27T13:52:45.169Z,61.70
2023-01-27T13:55:14.025Z,61.80
2023-01-27T13:57:51.477Z,62.20
2023-01-27T14:00:33.621Z,62.30
2023-01-27T14:03:28.257Z,62.40
2023-01-27T14:06:36.547Z,62.50
2023-01-27T14:09:24.241Z,62.80
2023-01-27T14:12:00.490Z,63.00
2023-01-27T14:14:33.060Z,63.00
2023-01-27T14:17:26.659Z,63.00
2023-01-27T14:20:12.639Z,63.20
2023-01-27T14:22:55.188Z,63.30
2023-01-27T14:25:47.179Z,63.30
2023-01-27T14:28:25.313Z,63.40
2023-01-27T14:30:58.648Z,63.60
2023-01-27T14:33:37.638Z,63.60
2023-01-27T14:36:28.828Z,63.50
2023-01-27T14:39:20.683Z,63.80
2023-01-27T14:45:07.402Z,63.90
2023-01-27T14:47:45.758Z,63.90
2023-01-27T14:50:30.351Z,64.00
2023-01-27T14:53:31.139Z,63.90
2023-01-27T14:56:06.473Z,64.10
2023-01-27T14:58:39.303Z,64.10
2023-01-27T15:01:24.791Z,64.10
2023-01-27T15:04:12.204Z,64.10
2023-01-27T15:06:58.681Z,64.30
2023-01-27T15:09:44.806Z,64.30
2023-01-27T15:12:44.173Z,64.50
2023-01-27T15:15:37.510Z,64.40
2023-01-27T15:18:37.585Z,64.20
2023-01-27T15:21:29.591Z,64.30
2023-01-27T15:24:16.183Z,64.20
2023-01-27T15:26:43.911Z,64.10
2023-01-27T15:29:15.219Z,64.10
2023-01-27T15:31:43.080Z,64.10
2023-01-27T15:34:22.853Z,64.20
2023-01-27T15:37:26.335Z,64.40
2023-01-27T15:40:05.248Z,64.50
2023-01-27T15:43:05.149Z,64.60
2023-01-27T15:45:42.355Z,64.60
2023-01-27T15:48:20.299Z,64.60
2023-01-27T15:51:06.014Z,64.90
2023-01-27T15:53:40.143Z,64.90
2023-01-27T15:56:08.004Z,65.10
2023-01-27T15:58:43.540Z,65.10
2023-01-27T16:01:23.311Z,65.30
2023-01-27T16:03:52.982Z,65.40
2023-01-27T16:06:26.154Z,65.50
2023-01-27T16:09:01.019Z,65.50
2023-01-27T16:11:30.892Z,65.60
2023-01-27T16:14:13.066Z,65.70
2023-01-27T16:16:39.883Z,65.70
2023-01-27T16:19:10.877Z,65.50
2023-01-27T16:22:00.668Z,65.60
2023-01-27T16:24:56.211Z,65.70
2023-01-27T16:27:46.743Z,65.70
2023-01-27T16:30:20.962Z,65.80
2023-01-27T16:32:58.258Z,65.80
2023-01-27T16:35:25.870Z,65.90
2023-01-27T16:38:01.651Z,65.90
2023-01-27T16:40:30.560Z,65.90
2023-01-27T16:43:06.540Z,65.90
2023-01-27T16:45:43.855Z,66.00
2023-01-27T16:48:32.026Z,66.00
2023-01-27T16:51:13.234Z,66.10
2023-01-27T16:53:48.080Z,66.10
2023-01-27T16:56:24.019Z,66.00
2023-01-27T16:58:52.068Z,65.80
2023-01-27T17:01:39.829Z,65.80
2023-01-27T17:04:19.551Z,66.00
2023-01-27T17:06:47.675Z,66.00
2023-01-27T17:09:26.785Z,66.20
2023-01-27T17:11:54.099Z,66.20
2023-01-27T17:14:34.899Z,66.30
2023-01-27T17:17:15.483Z,66.20
2023-01-27T17:19:48.430Z,66.20
2023-01-27T17:22:41.154Z,66.20
2023-01-27T17:25:25.123Z,66.20
2023-01-27T17:27:52.431Z,66.30
2023-01-27T17:30:23.999Z,66.40
2023-01-27T17:32:54.591Z,66.50
2023-01-27T17:35:28.885Z,66.40
2023-01-27T17:38:15.481Z,66.50
2023-01-27T17:40:47.997Z,66.50
2023-01-27T17:43:30.847Z,66.70
2023-01-27T17:46:06.794Z,66.70
2023-01-27T17:48:35.770Z,66.60
2023-01-27T17:51:02.608Z,66.60
2023-01-27T17:53:29.674Z,66.70
2023-01-27T17:55:56.871Z,66.70
2023-01-27T17:58:26.610Z,66.70
2023-01-27T18:00:54.863Z,66.60
2023-01-27T18:03:24.439Z,66.50
2023-01-27T18:05:54.229Z,66.70
2023-01-27T18:08:23.494Z,66.70
2023-01-27T18:10:51.440Z,66.60
2023-01-27T18:13:18.222Z,66.70
2023-01-27T18:15:59.416Z,66.70
2023-01-27T18:18:29.073Z,66.60
2023-01-27T18:21:09.445Z,66.40
2023-01-27T18:23:38.088Z,66.60
2023-01-27T18:26:16.339Z,66.60
2023-01-27T18:28:45.441Z,66.80
2023-01-27T18:31:20.346Z,66.90
2023-01-27T18:33:56.201Z,66.80
2023-01-27T18:36:25.024Z,66.70
2023-01-27T18:38:52.132Z,66.80
2023-01-27T18:41:28.957Z,66.90
2023-01-27T18:43:56.373Z,67.00
2023-01-27T18:46:25.146Z,66.90
2023-01-27T18:48:52.419Z,67.00
2023-01-27T18:51:19.309Z,67.10
2023-01-27T18:53:46.125Z,67.10
2023-01-27T18:56:14.038Z,66.80
2023-01-27T18:58:40.839Z,66.60
2023-01-27T19:01:16.123Z,66.60
2023-01-27T19:03:42.939Z,66.60
2023-01-27T19:06:16.359Z,66.50
2023-01-27T19:08:43.427Z,66.70
2023-01-27T19:11:14.912Z,66.90
2023-01-27T19:13:45.937Z,66.90
2023-01-27T19:16:15.829Z,66.80
2023-01-27T19:18:43.194Z,66.80
2023-01-27T19:21:13.443Z,66.80
2023-01-27T19:23:44.407Z,66.90
2023-01-27T19:26:17.375Z,66.90
2023-01-27T19:28:45.756Z,66.90
2023-01-27T19:31:12.672Z,66.90
2023-01-27T19:33:43.834Z,66.90
2023-01-27T19:36:29.763Z,67.00
2023-01-27T19:39:11.171Z,67.00
2023-01-27T19:41:38.096Z,67.10
2023-01-27T19:44:05.129Z,67.00
2023-01-27T19:46:33.871Z,67.10
2023-01-27T19:49:00.806Z,67.00
2023-01-27T19:51:27.631Z,67.00
2023-01-27T19:53:54.670Z,67.00
2023-01-27T19:56:23.524Z,67.10
2023-01-27T19:58:52.673Z,67.20
2023-01-27T20:01:21.615Z,67.20
2023-01-27T20:03:49.352Z,67.10
2023-01-27T20:06:21.815Z,67.20
2023-01-27T20:08:54.421Z,67.10
2023-01-27T20:11:36.094Z,67.30
2023-01-27T20:14:05.991Z,67.40
2023-01-27T20:16:33.805Z,67.30
2023-01-27T20:19:00.786Z,67.40
2023-01-27T20:21:28.618Z,67.30
2023-01-27T20:23:55.458Z,67.50
2023-01-27T20:26:22.608Z,67.50
2023-01-27T20:28:50.068Z,67.60
2023-01-27T20:31:19.488Z,67.50
2023-01-27T20:33:50.225Z,67.60
2023-01-27T20:36:21.022Z,67.50
2023-01-27T20:38:48.380Z,67.40
2023-01-27T20:41:20.626Z,67.40
2023-01-27T20:43:47.822Z,67.60
2023-01-27T20:46:17.443Z,67.60
2023-01-27T20:48:44.760Z,67.70
2023-01-27T20:51:14.157Z,67.70
2023-01-27T20:53:45.176Z,67.70
2023-01-27T20:56:20.533Z,67.60
2023-01-27T20:58:48.556Z,67.60
2023-01-27T21:01:21.047Z,67.70
2023-01-27T21:03:48.224Z,67.80
2023-01-27T21:06:16.020Z,67.80
2023-01-27T21:08:43.564Z,67.80
2023-01-27T21:11:12.703Z,67.90
2023-01-27T21:13:39.517Z,67.90
2023-01-27T21:16:06.788Z,68.00
2023-01-27T21:18:33.721Z,68.10
2023-01-27T21:21:02.550Z,68.20
2023-01-27T21:23:31.424Z,68.20
2023-01-27T21:26:04.383Z,68.30
2023-01-27T21:28:33.843Z,68.30
2023-01-27T21:31:11.800Z,68.40
2023-01-27T21:33:39.442Z,68.30
2023-01-27T21:36:10.490Z,68.30
2023-01-27T21:38:38.097Z,68.40
2023-01-27T21:41:14.124Z,68.50
2023-01-27T21:43:59.713Z,68.70
2023-01-27T21:46:26.489Z,68.70
2023-01-27T21:48:53.329Z,68.60
2023-01-27T21:51:20.230Z,68.60
2023-01-27T21:53:47.325Z,68.60
2023-01-27T21:56:14.241Z,68.50
2023-01-27T21:58:41.047Z,68.60
2023-01-27T22:01:09.633Z,68.50
2023-01-27T22:03:37.631Z,68.20
2023-01-27T22:06:08.632Z,68.50
2023-01-27T22:08:36.685Z,68.50
2023-01-27T22:11:07.561Z,68.50
2023-01-27T22:13:35.702Z,68.60
2023-01-27T22:16:03.686Z,68.60
2023-01-27T22:18:31.086Z,68.60
2023-01-27T22:21:01.596Z,68.60
2023-01-27T22:23:28.596Z,68.50
2023-01-27T22:25:55.603Z,68.50
2023-01-27T22:28:24.088Z,68.50
2023-01-27T22:30:51.466Z,68.50
2023-01-27T22:33:19.020Z,68.40
2023-01-27T22:35:45.924Z,68.20
2023-01-27T22:38:12.944Z,68.30
2023-01-27T22:40:40.066Z,68.30
2023-01-27T22:43:10.305Z,68.30
2023-01-27T22:45:40.671Z,68.40
2023-01-27T22:48:08.781Z,68.60
2023-01-27T22:50:36.873Z,68.60
2023-01-27T22:53:05.424Z,68.60
2023-01-27T22:55:32.966Z,68.50
2023-01-27T22:57:59.988Z,68.50
2023-01-27T23:00:26.960Z,68.50
2023-01-27T23:02:54.303Z,68.60
2023-01-27T23:05:21.275Z,68.50
2023-01-27T23:07:48.267Z,68.40
2023-01-27T23:10:15.931Z,68.40
2023-01-27T23:12:42.820Z,68.40
2023-01-27T23:15:10.431Z,68.60
2023-01-27T23:17:37.465Z,68.60
2023-01-27T23:20:05.013Z,68.50
2023-01-27T23:22:32.429Z,68.50
2023-01-27T23:24:59.450Z,68.40
2023-01-27T23:27:28.561Z,68.40
2023-01-27T23:29:55.587Z,68.30
2023-01-27T23:32:22.597Z,68.30
2023-01-27T23:34:50.381Z,68.20
2023-01-27T23:37:17.467Z,68.10
2023-01-27T23:39:48.670Z,68.00
2023-01-27T23:42:16.765Z,68.10
2023-01-27T23:44:43.794Z,68.10
2023-01-27T23:47:11.531Z,68.10
2023-01-27T23:49:38.657Z,68.00
2023-01-27T23:52:05.922Z,68.00
2023-01-27T23:54:32.960Z,67.80
2023-01-27T23:57:00.487Z,67.90
2023-01-27T23:59:27.393Z,67.80
